createdAt,value
2018-11-25T00:01:33.364Z,99323.84
2018-11-25T00:04:08.664Z,99409.41
2018-11-25T00:06:43.476Z,99371.09
2018-11-25T00:09:17.202Z,99400.19
2018-11-25T00:11:55.443Z,99397.94
2018-11-25T00:14:29.740Z,99389.59
2018-11-25T00:17:02.899Z,99378.44
2018-11-25T00:19:38.985Z,99379.23
2018-11-25T00:22:13.059Z,99386.53
2018-11-25T00:24:47.930Z,99383.95
2018-11-25T00:27:22.445Z,99387.88
2018-11-25T00:30:03.520Z,99380.16
2018-11-25T00:32:38.104Z,99385.91
2018-11-25T00:35:15.907Z,99385.23
2018-11-25T00:37:53.312Z,99378.27
2018-11-25T00:40:25.583Z,99380.59
2018-11-25T00:43:01.235Z,99378.64
2018-11-25T00:45:37.551Z,99377.61
2018-11-25T00:48:14.469Z,99378.30
2018-11-25T00:50:48.750Z,99383.78
2018-11-25T00:53:26.814Z,99378.28
2018-11-25T00:56:01.222Z,99388.17
2018-11-25T00:58:39.265Z,99285.00
2018-11-25T01:01:13.599Z,99382.26
2018-11-25T01:03:48.445Z,99370.34
2018-11-25T01:06:23.543Z,99376.07
2018-11-25T01:08:57.379Z,99379.30
2018-11-25T01:11:36.976Z,99377.02
2018-11-25T01:14:12.593Z,99378.91
2018-11-25T01:16:48.412Z,99381.82
2018-11-25T01:19:21.973Z,99382.83
2018-11-25T01:21:56.194Z,99383.56
2018-11-25T01:24:33.568Z,99381.83
2018-11-25T01:27:08.146Z,99372.06
2018-11-25T01:29:43.610Z,99373.86
2018-11-25T01:32:16.620Z,99364.34
2018-11-25T01:34:53.066Z,99365.12
2018-11-25T01:37:28.483Z,99362.52
2018-11-25T01:40:02.945Z,99360.86
2018-11-25T01:42:36.386Z,99344.25
2018-11-25T01:45:14.422Z,99362.08
2018-11-25T01:47:50.098Z,99353.94
2018-11-25T01:50:22.756Z,99363.44
2018-11-25T01:52:57.122Z,99352.15
2018-11-25T01:55:30.661Z,99354.10
2018-11-25T01:58:11.722Z,99350.41
2018-11-25T02:00:45.693Z,99352.44
2018-11-25T02:03:20.825Z,99348.20
2018-11-25T02:05:55.642Z,99345.77
2018-11-25T02:08:32.229Z,99338.45
2018-11-25T02:11:07.810Z,99345.08
2018-11-25T02:13:41.333Z,99304.08
2018-11-25T02:16:16.415Z,99338.80
2018-11-25T02:18:52.929Z,99337.52
2018-11-25T02:21:28.194Z,99339.11
2018-11-25T02:24:05.082Z,99337.09
2018-11-25T02:26:39.315Z,99323.37
2018-11-25T02:29:18.995Z,99322.18
2018-11-25T02:31:52.443Z,99253.57
2018-11-25T02:34:33.910Z,99320.45
2018-11-25T02:37:07.839Z,99312.22
2018-11-25T02:39:48.448Z,99314.23
2018-11-25T02:42:21.296Z,99317.80
2018-11-25T02:44:53.934Z,99319.44
2018-11-25T02:47:25.252Z,99323.37
2018-11-25T02:49:59.065Z,99321.53
2018-11-25T02:52:32.910Z,99317.69
2018-11-25T02:55:06.484Z,99311.61
2018-11-25T02:57:38.861Z,99312.03
2018-11-25T03:00:15.720Z,99310.67
2018-11-25T03:02:50.220Z,99191.31
2018-11-25T03:05:25.166Z,99304.10
2018-11-25T03:07:57.758Z,99309.69
2018-11-25T03:10:32.353Z,99295.52
2018-11-25T03:13:07.162Z,99281.24
2018-11-25T03:15:46.357Z,99294.72
2018-11-25T03:18:23.316Z,99301.20
2018-11-25T03:20:54.961Z,99302.44
2018-11-25T03:23:31.203Z,99303.16
2018-11-25T03:26:07.637Z,99293.73
2018-11-25T03:28:40.836Z,99296.59
2018-11-25T03:31:10.652Z,99294.89
2018-11-25T03:33:47.210Z,99288.91
2018-11-25T03:36:21.876Z,99282.62
2018-11-25T03:38:58.900Z,99288.11
2018-11-25T03:41:32.600Z,99286.09
2018-11-25T03:44:06.676Z,99295.52
2018-11-25T03:46:38.399Z,99281.18
2018-11-25T03:49:10.542Z,99277.12
2018-11-25T03:51:42.020Z,99273.77
2018-11-25T03:54:13.157Z,99272.22
2018-11-25T03:56:47.434Z,99271.54
2018-11-25T03:59:18.423Z,99269.94
2018-11-25T04:01:50.051Z,99261.39
2018-11-25T04:04:21.458Z,99263.78
2018-11-25T04:06:51.882Z,99263.16
2018-11-25T04:09:22.962Z,99259.73
2018-11-25T04:11:53.828Z,99273.98
2018-11-25T04:14:25.883Z,99269.97
2018-11-25T04:16:57.079Z,99269.75
2018-11-25T04:19:27.977Z,99269.89
2018-11-25T04:21:58.564Z,99267.34
2018-11-25T04:24:29.266Z,99269.87
2018-11-25T04:27:00.461Z,99266.20
2018-11-25T04:29:31.986Z,99267.91
2018-11-25T04:32:03.061Z,99265.84
2018-11-25T04:34:34.277Z,99266.58
2018-11-25T04:37:05.467Z,99261.57
2018-11-25T04:39:41.537Z,99266.64
2018-11-25T04:42:11.956Z,99249.48
2018-11-25T04:44:42.457Z,99265.74
2018-11-25T04:47:16.188Z,99262.08
2018-11-25T04:49:48.947Z,99261.50
2018-11-25T04:52:23.057Z,99263.39
2018-11-25T04:54:58.822Z,99264.20
2018-11-25T04:57:31.003Z,99262.00
2018-11-25T05:00:07.030Z,99263.70
2018-11-25T05:02:40.433Z,99269.41
2018-11-25T05:05:16.298Z,99271.59
2018-11-25T05:07:51.606Z,99265.28
2018-11-25T05:10:25.804Z,99267.16
2018-11-25T05:12:58.745Z,99264.38
2018-11-25T05:15:32.304Z,99267.67
2018-11-25T05:18:03.260Z,99262.23
2018-11-25T05:20:34.565Z,99262.84
2018-11-25T05:23:05.566Z,99257.48
2018-11-25T05:25:37.636Z,99250.80
2018-11-25T05:28:09.588Z,99254.52
2018-11-25T05:30:45.969Z,99256.98
2018-11-25T05:33:18.115Z,99262.56
2018-11-25T05:35:51.087Z,99257.38
2018-11-25T05:38:21.526Z,99259.86
2018-11-25T05:40:55.960Z,99256.20
2018-11-25T05:43:26.921Z,99254.37
2018-11-25T05:45:57.148Z,99250.25
2018-11-25T05:48:28.477Z,99252.69
2018-11-25T05:50:59.539Z,99247.18
2018-11-25T05:53:30.243Z,99253.50
2018-11-25T05:56:02.068Z,99240.28
2018-11-25T05:58:32.875Z,99245.30
2018-11-25T06:01:03.731Z,99242.96
2018-11-25T06:03:36.116Z,99242.78
2018-11-25T06:06:07.533Z,99245.23
2018-11-25T06:08:38.453Z,99244.72
2018-11-25T06:11:09.902Z,99248.77
2018-11-25T06:13:40.794Z,99247.63
2018-11-25T06:16:12.892Z,99246.59
2018-11-25T06:18:44.583Z,99225.53
2018-11-25T06:21:15.878Z,99247.30
2018-11-25T06:23:47.077Z,99254.26
2018-11-25T06:26:18.394Z,99248.26
2018-11-25T06:28:50.441Z,99245.94
2018-11-25T06:31:20.554Z,99247.34
2018-11-25T06:33:50.848Z,99255.15
2018-11-25T06:36:22.959Z,99245.34
2018-11-25T06:38:53.006Z,99243.80
2018-11-25T06:41:24.068Z,99247.55
2018-11-25T06:43:55.421Z,99247.61
2018-11-25T06:46:28.813Z,99243.60
2018-11-25T06:49:00.005Z,99247.11
2018-11-25T06:51:30.673Z,99256.58
2018-11-25T06:54:01.584Z,99253.89
2018-11-25T06:56:33.983Z,99250.98
2018-11-25T06:59:12.091Z,99252.89
2018-11-25T07:01:42.917Z,99245.13
2018-11-25T07:04:14.395Z,99243.17
2018-11-25T07:06:46.729Z,99246.91
2018-11-25T07:09:17.138Z,99245.46
2018-11-25T07:11:47.918Z,99246.98
2018-11-25T07:14:28.215Z,99242.45
2018-11-25T07:17:00.122Z,99238.11
2018-11-25T07:19:35.854Z,99235.44
2018-11-25T07:22:06.960Z,99223.42
2018-11-25T07:24:38.893Z,99238.31
2018-11-25T07:27:14.432Z,99233.06
2018-11-25T07:29:47.228Z,99239.11
2018-11-25T07:32:21.528Z,99236.56
2018-11-25T07:34:52.727Z,99242.45
2018-11-25T07:37:23.937Z,99239.94
2018-11-25T07:39:56.708Z,99239.98
2018-11-25T07:42:26.983Z,99247.16
2018-11-25T07:45:01.655Z,99238.64
2018-11-25T07:47:31.746Z,99236.36
2018-11-25T07:50:03.573Z,99244.94
2018-11-25T07:52:35.092Z,99243.65
2018-11-25T07:55:07.266Z,99227.84
2018-11-25T07:57:42.390Z,99231.97
2018-11-25T08:00:21.360Z,99230.72
2018-11-25T08:02:52.423Z,99234.10
2018-11-25T08:05:27.255Z,99236.20
2018-11-25T08:07:58.624Z,99233.40
2018-11-25T08:10:30.559Z,99233.30
2018-11-25T08:13:01.681Z,99233.30
2018-11-25T08:15:31.803Z,99230.11
2018-11-25T08:18:02.321Z,99225.80
2018-11-25T08:20:32.626Z,99222.03
2018-11-25T08:23:02.919Z,99218.52
2018-11-25T08:25:34.116Z,99221.38
2018-11-25T08:28:05.759Z,99223.28
2018-11-25T08:30:38.304Z,99219.19
2018-11-25T08:33:08.458Z,99215.55
2018-11-25T08:35:39.608Z,99224.30
2018-11-25T08:38:09.709Z,99213.38
2018-11-25T08:40:46.460Z,99211.02
2018-11-25T08:43:17.861Z,99215.98
2018-11-25T08:45:49.381Z,99210.31
2018-11-25T08:48:23.845Z,99217.55
2018-11-25T08:50:55.219Z,99209.85
2018-11-25T08:53:25.806Z,99206.95
2018-11-25T08:55:56.189Z,99206.30
2018-11-25T08:58:27.068Z,99200.29
2018-11-25T09:00:58.354Z,99203.95
2018-11-25T09:03:29.045Z,99209.85
2018-11-25T09:06:01.164Z,99203.17
2018-11-25T09:08:31.439Z,99201.63
2018-11-25T09:11:02.387Z,99197.43
2018-11-25T09:13:33.332Z,99202.69
2018-11-25T09:16:04.605Z,99198.44
2018-11-25T09:18:35.491Z,99197.47
2018-11-25T09:21:07.114Z,99199.31
2018-11-25T09:23:38.152Z,99196.70
2018-11-25T09:26:08.196Z,99200.77
2018-11-25T09:28:38.410Z,99194.96
2018-11-25T09:31:10.088Z,99198.60
2018-11-25T09:33:41.046Z,99199.91
2018-11-25T09:36:11.574Z,99196.33
2018-11-25T09:38:41.718Z,99206.13
2018-11-25T09:41:11.734Z,99191.74
2018-11-25T09:43:41.757Z,99198.66
2018-11-25T09:46:12.530Z,99191.70
2018-11-25T09:48:43.561Z,99191.64
2018-11-25T09:51:15.195Z,99185.61
2018-11-25T09:53:47.119Z,99089.17
2018-11-25T09:56:18.155Z,99181.38
2018-11-25T09:58:48.463Z,99179.84
2018-11-25T10:01:19.609Z,99179.86
2018-11-25T10:03:51.950Z,99186.03
2018-11-25T10:06:23.045Z,99169.00
2018-11-25T10:08:56.675Z,99172.73
2018-11-25T10:11:26.830Z,99168.01
2018-11-25T10:13:57.235Z,99172.01
2018-11-25T10:16:28.332Z,99173.23
2018-11-25T10:19:09.366Z,99180.05
2018-11-25T10:21:43.735Z,99162.84
2018-11-25T10:24:15.230Z,99169.14
2018-11-25T10:26:47.192Z,99169.65
2018-11-25T10:29:20.233Z,99160.17
2018-11-25T10:31:52.046Z,99157.59
2018-11-25T10:34:26.331Z,99157.59
2018-11-25T10:36:57.913Z,99153.88
2018-11-25T10:39:31.224Z,99146.24
2018-11-25T10:42:02.571Z,99156.73
2018-11-25T10:44:35.055Z,99147.39
2018-11-25T10:47:05.368Z,99152.52
2018-11-25T10:49:37.415Z,99149.13
2018-11-25T10:52:09.236Z,99148.08
2018-11-25T10:54:40.099Z,99148.91
2018-11-25T10:57:11.701Z,99150.11
2018-11-25T10:59:43.395Z,99143.50
2018-11-25T11:02:25.693Z,99136.28
2018-11-25T11:05:02.866Z,99136.81
2018-11-25T11:07:40.333Z,99135.22
2018-11-25T11:10:18.273Z,99129.05
2018-11-25T11:12:50.052Z,99126.08
2018-11-25T11:15:24.147Z,99128.44
2018-11-25T11:17:57.735Z,99123.10
2018-11-25T11:20:29.381Z,99130.09
2018-11-25T11:23:02.638Z,99138.27
2018-11-25T11:25:33.594Z,99125.48
2018-11-25T11:28:05.884Z,99120.46
2018-11-25T11:30:37.813Z,99097.09
2018-11-25T11:33:09.195Z,99122.45
2018-11-25T11:35:41.633Z,99120.23
2018-11-25T11:38:12.334Z,99117.45
2018-11-25T11:40:49.854Z,99119.48
2018-11-25T11:43:21.652Z,99113.73
2018-11-25T11:45:53.308Z,99107.29
2018-11-25T11:48:29.447Z,99109.80
2018-11-25T11:51:06.923Z,99109.23
2018-11-25T11:54:46.852Z,99100.67
2018-11-25T11:57:18.150Z,99103.33
2018-11-25T11:59:50.010Z,99089.34
2018-11-25T12:02:31.648Z,99096.84
2018-11-25T12:05:02.061Z,99100.92
2018-11-25T12:07:33.131Z,99097.94
2018-11-25T12:10:03.616Z,99100.50
2018-11-25T12:12:33.843Z,99103.33
2018-11-25T12:15:31.090Z,99097.22
2018-11-25T12:18:07.901Z,99093.19
2018-11-25T12:23:41.790Z,99069.95
2018-11-25T12:26:19.371Z,99087.88
2018-11-25T12:31:59.589Z,99086.97
2018-11-25T12:34:34.019Z,99084.16
2018-11-25T12:37:11.891Z,99077.51
2018-11-25T12:39:49.701Z,99089.38
2018-11-25T12:42:27.067Z,99082.05
2018-11-25T12:51:34.854Z,99079.65
2018-11-25T12:54:11.876Z,99079.86
2018-11-25T12:56:51.753Z,99088.80
2018-11-25T12:59:25.099Z,99084.44
2018-11-25T13:02:03.458Z,99085.58
2018-11-25T13:04:37.936Z,99077.14
2018-11-25T13:07:15.968Z,99075.86
2018-11-25T13:09:50.510Z,99072.63
2018-11-25T13:12:29.398Z,99073.86
2018-11-25T13:15:07.216Z,99069.69
2018-11-25T13:17:45.994Z,99069.09
2018-11-25T13:20:23.067Z,99061.58
2018-11-25T13:23:02.535Z,99071.14
2018-11-25T13:25:37.722Z,99066.69
2018-11-25T13:28:13.658Z,99065.38
2018-11-25T13:30:52.528Z,99046.81
2018-11-25T13:33:29.994Z,99057.61
2018-11-25T13:36:06.978Z,99055.64
2018-11-25T13:38:44.299Z,99052.30
2018-11-25T13:41:17.934Z,99050.27
2018-11-25T13:43:57.117Z,99044.59
2018-11-25T13:46:32.095Z,99041.80
2018-11-25T13:49:08.507Z,99035.69
2018-11-25T13:51:43.875Z,99038.40
2018-11-25T13:54:24.643Z,99040.28
2018-11-25T13:57:00.915Z,99037.43
2018-11-25T13:59:33.987Z,99039.71
2018-11-25T14:02:12.219Z,99034.70
2018-11-25T14:04:49.909Z,99040.37
2018-11-25T14:07:28.307Z,99040.97
2018-11-25T14:10:03.933Z,99035.75
2018-11-25T14:12:41.498Z,99020.55
2018-11-25T14:15:26.327Z,99029.86
2018-11-25T14:18:02.275Z,99003.63
2018-11-25T14:20:44.313Z,99024.72
2018-11-25T14:23:21.935Z,98949.33
2018-11-25T14:26:01.083Z,99016.59
2018-11-25T14:28:37.679Z,99014.17
2018-11-25T14:31:16.655Z,99026.92
2018-11-25T14:36:32.761Z,98972.73
2018-11-25T14:41:52.972Z,98899.73
2018-11-25T14:44:33.104Z,99019.45
2018-11-25T14:47:10.819Z,99010.86
2018-11-25T14:49:48.327Z,98903.99
2018-11-25T14:52:22.742Z,99018.13
2018-11-25T14:55:00.901Z,99019.50
2018-11-25T14:57:35.930Z,98992.72
2018-11-25T15:00:16.907Z,99020.97
2018-11-25T15:02:55.871Z,99024.16
2018-11-25T15:05:40.905Z,99022.53
2018-11-25T15:08:21.329Z,99025.48
2018-11-25T15:10:57.892Z,99016.41
2018-11-25T15:13:33.491Z,99021.97
2018-11-25T15:16:10.212Z,99039.28
2018-11-25T15:18:47.535Z,99007.87
2018-11-25T15:24:06.432Z,99008.78
2018-11-25T15:26:39.125Z,99010.44
2018-11-25T15:29:13.777Z,99009.58
2018-11-25T15:31:52.057Z,99010.65
2018-11-25T15:34:29.006Z,99003.95
2018-11-25T15:37:04.427Z,99003.48
2018-11-25T15:39:49.331Z,99009.36
2018-11-25T15:42:24.117Z,99004.84
2018-11-25T15:44:56.711Z,98998.56
2018-11-25T15:47:31.529Z,98921.30
2018-11-25T15:50:10.239Z,99008.33
2018-11-25T15:52:47.455Z,99009.05
2018-11-25T15:55:23.816Z,99013.52
2018-11-25T15:57:57.301Z,99010.62
2018-11-25T16:00:32.806Z,99005.66
2018-11-25T16:03:10.588Z,99008.97
2018-11-25T16:05:47.785Z,99007.31
2018-11-25T16:08:26.931Z,99006.05
2018-11-25T16:11:03.466Z,99005.55
2018-11-25T16:13:37.969Z,98999.77
2018-11-25T16:16:07.817Z,99009.14
2018-11-25T16:18:46.990Z,99006.66
2018-11-25T16:21:19.182Z,98995.42
2018-11-25T16:23:56.363Z,98982.36
2018-11-25T16:26:37.704Z,99008.19
2018-11-25T16:29:17.313Z,99013.34
2018-11-25T16:31:49.587Z,99007.38
2018-11-25T16:34:23.157Z,99007.46
2018-11-25T16:36:58.726Z,99007.25
2018-11-25T16:39:30.087Z,99018.78
2018-11-25T16:42:07.343Z,99015.67
2018-11-25T16:44:39.543Z,99023.30
2018-11-25T16:47:12.014Z,99027.63
2018-11-25T16:49:49.052Z,99025.48
2018-11-25T16:52:19.816Z,99020.64
2018-11-25T16:54:52.249Z,99034.82
2018-11-25T16:57:44.129Z,99026.91
2018-11-25T17:00:28.279Z,99033.51
2018-11-25T17:03:06.533Z,99031.69
2018-11-25T17:05:43.903Z,99024.78
2018-11-25T17:08:28.676Z,99020.26
2018-11-25T17:11:06.584Z,99017.08
2018-11-25T17:13:47.718Z,99020.13
2018-11-25T17:16:23.238Z,99021.36
2018-11-25T17:18:54.837Z,99014.25
2018-11-25T17:21:32.664Z,99014.58
2018-11-25T17:24:07.999Z,99017.33
2018-11-25T17:26:43.526Z,99015.21
2018-11-25T17:29:28.790Z,99002.41
2018-11-25T17:32:04.367Z,98954.16
2018-11-25T17:34:41.328Z,99018.72
2018-11-25T17:37:16.292Z,99010.63
2018-11-25T17:39:49.040Z,99002.78
2018-11-25T17:42:22.335Z,98993.15
2018-11-25T17:44:58.846Z,99000.62
2018-11-25T17:47:34.203Z,98998.20
2018-11-25T17:50:10.298Z,98995.27
2018-11-25T17:52:45.386Z,99002.11
2018-11-25T17:55:22.822Z,98998.28
2018-11-25T17:58:01.692Z,99004.86
2018-11-25T18:00:42.924Z,99004.86
2018-11-25T18:03:21.552Z,99008.97
2018-11-25T18:05:53.073Z,99013.58
2018-11-25T18:08:25.769Z,99008.31
2018-11-25T18:10:57.190Z,99011.63
2018-11-25T18:13:34.714Z,99003.12
2018-11-25T18:16:12.424Z,98996.98
2018-11-25T18:18:49.186Z,98996.44
2018-11-25T18:21:37.243Z,99010.80
2018-11-25T18:24:11.236Z,99013.58
2018-11-25T18:27:14.384Z,99017.09
2018-11-25T18:29:53.676Z,99013.08
2018-11-25T18:32:28.208Z,99014.02
2018-11-25T18:35:01.973Z,99015.94
2018-11-25T18:37:35.355Z,99010.19
2018-11-25T18:40:09.364Z,99014.73
2018-11-25T18:42:44.469Z,99013.98
2018-11-25T18:45:21.568Z,99019.70
2018-11-25T18:48:07.420Z,99027.86
2018-11-25T18:50:47.132Z,99016.84
2018-11-25T18:53:22.628Z,99010.41
2018-11-25T18:55:52.294Z,99020.00
2018-11-25T18:58:30.586Z,99016.82
2018-11-25T19:01:09.118Z,98999.61
2018-11-25T19:03:41.918Z,99008.05
2018-11-25T19:06:14.248Z,99008.64
2018-11-25T19:08:45.250Z,99005.00
2018-11-25T19:11:21.836Z,99007.63
2018-11-25T19:13:54.977Z,99009.66
2018-11-25T19:16:26.530Z,99001.56
2018-11-25T19:19:00.681Z,99005.65
2018-11-25T19:21:47.394Z,99001.67
2018-11-25T19:28:12.212Z,98927.37
2018-11-25T19:40:53.738Z,98989.43
2018-11-25T19:43:29.272Z,98981.92
2018-11-25T19:46:04.862Z,98983.88
2018-11-25T19:48:39.733Z,98982.00
2018-11-25T19:51:17.823Z,98990.08
2018-11-25T19:53:53.198Z,98996.91
2018-11-25T19:56:29.627Z,98997.27
2018-11-25T19:59:12.489Z,98994.37
2018-11-25T20:01:48.216Z,98991.59
2018-11-25T20:04:24.619Z,98996.22
2018-11-25T20:09:45.712Z,98999.55
2018-11-25T20:12:22.992Z,98999.30
2018-11-25T20:14:56.832Z,98994.48
2018-11-25T20:17:31.087Z,98999.94
2018-11-25T20:20:08.295Z,98998.46
2018-11-25T20:22:47.301Z,98999.58
2018-11-25T20:25:24.787Z,98999.22
2018-11-25T20:28:00.882Z,98989.65
2018-11-25T20:30:35.981Z,98996.00
2018-11-25T20:33:19.249Z,98995.99
2018-11-25T20:35:58.427Z,98999.81
2018-11-25T20:38:39.364Z,99000.62
2018-11-25T20:41:21.194Z,99001.58
2018-11-25T20:44:01.608Z,99003.80
2018-11-25T20:46:43.533Z,99005.03
2018-11-25T20:49:23.403Z,99006.00
2018-11-25T20:52:05.084Z,99004.00
2018-11-25T20:54:43.576Z,98996.10
2018-11-25T20:57:23.255Z,98997.09
2018-11-25T21:00:02.041Z,99003.91
2018-11-25T21:02:46.032Z,99007.55
2018-11-25T21:05:26.493Z,99005.06
2018-11-25T21:10:53.025Z,99018.55
2018-11-25T21:13:25.342Z,99016.28
2018-11-25T21:15:56.897Z,99005.25
2018-11-25T21:18:36.769Z,99011.98
2018-11-25T21:21:16.997Z,99007.88
2018-11-25T21:23:52.927Z,99008.20
2018-11-25T21:29:14.210Z,99020.43
2018-11-25T21:31:48.662Z,99018.48
2018-11-25T21:34:24.372Z,99014.65
2018-11-25T21:37:00.427Z,99008.31
2018-11-25T21:39:45.828Z,99001.85
2018-11-25T21:42:22.259Z,99001.97
2018-11-25T21:44:59.821Z,99001.48
2018-11-25T21:47:34.144Z,98990.73
2018-11-25T21:50:12.830Z,98996.80
2018-11-25T21:52:51.887Z,98993.06
2018-11-25T21:55:27.134Z,98997.00
2018-11-25T21:58:12.684Z,98999.67
2018-11-25T22:00:48.195Z,98995.61
2018-11-25T22:03:22.763Z,98998.52
2018-11-25T22:05:58.815Z,99003.41
2018-11-25T22:08:36.164Z,98995.84
2018-11-25T22:13:58.783Z,99007.14
2018-11-25T22:16:35.439Z,99015.09
2018-11-25T22:19:09.694Z,99000.47
2018-11-25T22:21:44.382Z,98998.36
2018-11-25T22:24:22.577Z,98997.86
2018-11-25T22:26:57.972Z,99009.52
2018-11-25T22:29:31.249Z,99004.74
2018-11-25T22:32:07.893Z,99003.29
2018-11-25T22:34:48.972Z,99003.11
2018-11-25T22:37:23.509Z,99006.52
2018-11-25T22:39:59.829Z,99017.52
2018-11-25T22:42:33.614Z,99018.68
2018-11-25T22:45:12.082Z,99024.19
2018-11-25T22:47:47.522Z,99022.83
2018-11-25T22:50:27.630Z,99024.02
2018-11-25T22:53:00.290Z,99025.41
2018-11-25T22:55:32.205Z,98972.42
2018-11-25T22:58:05.684Z,99009.91
2018-11-25T23:00:40.530Z,99010.56
2018-11-25T23:03:17.566Z,99013.88
2018-11-25T23:06:00.025Z,99016.34
2018-11-25T23:08:36.075Z,99022.55
2018-11-25T23:11:07.656Z,99020.06
2018-11-25T23:13:47.514Z,99030.94
2018-11-25T23:16:21.758Z,99022.55
2018-11-25T23:18:59.703Z,99020.63
2018-11-25T23:21:38.297Z,99018.60
2018-11-25T23:24:14.405Z,99017.34
2018-11-25T23:26:52.916Z,99017.70
2018-11-25T23:29:26.593Z,99017.52
2018-11-25T23:32:02.187Z,99011.13
2018-11-25T23:34:43.600Z,99010.14
2018-11-25T23:37:19.082Z,99008.98
2018-11-25T23:39:55.925Z,99024.87
2018-11-25T23:42:30.695Z,99010.04
2018-11-25T23:45:03.448Z,99011.61
2018-11-25T23:47:35.674Z,99008.59
2018-11-25T23:50:16.838Z,99008.59
2018-11-25T23:53:01.207Z,99005.47
2018-11-25T23:55:38.828Z,99002.65
2018-11-25T23:58:13.589Z,99003.02
